sensor_id;sensor_type;location;lat;lon;timestamp;temperature;humidity
8662;DHT22;29684;47.722;9.388;2024-01-16T00:01:08;-2.80;99.90
8662;DHT22;29684;47.722;9.388;2024-01-16T00:03:52;-2.90;99.90
8662;DHT22;29684;47.722;9.388;2024-01-16T00:06:40;-2.90;99.90
8662;DHT22;29684;47.722;9.388;2024-01-16T00:09:24;-2.90;99.90
8662;DHT22;29684;47.722;9.388;2024-01-16T00:12:09;-2.90;99.90
8662;DHT22;29684;47.722;9.388;2024-01-16T00:14:53;-3.00;99.90
8662;DHT22;29684;47.722;9.388;2024-01-16T00:17:37;-3.00;99.90
8662;DHT22;29684;47.722;9.388;2024-01-16T00:20:21;-1.50;99.90
8662;DHT22;29684;47.722;9.388;2024-01-16T00:23:07;-3.10;99.90
8662;DHT22;29684;47.722;9.388;2024-01-16T00:25:52;-3.10;99.90
8662;DHT22;29684;47.722;9.388;2024-01-16T00:28:36;-3.20;99.90
8662;DHT22;29684;47.722;9.388;2024-01-16T00:31:20;-3.20;99.90
8662;DHT22;29684;47.722;9.388;2024-01-16T00:34:05;-3.20;99.90
8662;DHT22;29684;47.722;9.388;2024-01-16T00:36:49;-3.10;99.90
8662;DHT22;29684;47.722;9.388;2024-01-16T00:39:33;-3.10;99.90
8662;DHT22;29684;47.722;9.388;2024-01-16T00:42:18;-3.10;99.90
8662;DHT22;29684;47.722;9.388;2024-01-16T00:45:02;-3.10;99.90
8662;DHT22;29684;47.722;9.388;2024-01-16T00:47:46;-3.20;99.90
8662;DHT22;29684;47.722;9.388;2024-01-16T00:50:31;-3.20;99.90
8662;DHT22;29684;47.722;9.388;2024-01-16T00:53:16;-3.20;99.90
8662;DHT22;29684;47.722;9.388;2024-01-16T00:56:01;-3.20;99.90
8662;DHT22;29684;47.722;9.388;2024-01-16T00:58:45;-3.20;99.90
8662;DHT22;29684;47.722;9.388;2024-01-16T01:01:29;-3.10;99.90
8662;DHT22;29684;47.722;9.388;2024-01-16T01:04:13;-3.10;99.90
8662;DHT22;29684;47.722;9.388;2024-01-16T01:06:57;-2.90;99.90
8662;DHT22;29684;47.722;9.388;2024-01-16T01:09:41;-3.00;99.90
8662;DHT22;29684;47.722;9.388;2024-01-16T01:12:26;-3.10;99.90
8662;DHT22;29684;47.722;9.388;2024-01-16T01:15:10;-3.10;99.90
8662;DHT22;29684;47.722;9.388;2024-01-16T01:17:55;-3.20;99.90
8662;DHT22;29684;47.722;9.388;2024-01-16T01:20:39;-3.30;99.90
8662;DHT22;29684;47.722;9.388;2024-01-16T01:23:23;-3.10;99.90
8662;DHT22;29684;47.722;9.388;2024-01-16T01:26:07;-3.10;99.90
8662;DHT22;29684;47.722;9.388;2024-01-16T01:28:51;-3.10;99.90
8662;DHT22;29684;47.722;9.388;2024-01-16T01:31:36;-3.10;99.90
8662;DHT22;29684;47.722;9.388;2024-01-16T01:34:21;-3.10;99.90
8662;DHT22;29684;47.722;9.388;2024-01-16T01:37:05;-3.20;99.90
8662;DHT22;29684;47.722;9.388;2024-01-16T01:39:49;-3.10;99.90
8662;DHT22;29684;47.722;9.388;2024-01-16T01:42:33;-3.00;99.90
8662;DHT22;29684;47.722;9.388;2024-01-16T01:45:17;-3.00;99.90
8662;DHT22;29684;47.722;9.388;2024-01-16T01:48:02;-3.00;99.90
8662;DHT22;29684;47.722;9.388;2024-01-16T01:50:51;-3.00;99.90
8662;DHT22;29684;47.722;9.388;2024-01-16T01:53:36;-3.00;99.90
8662;DHT22;29684;47.722;9.388;2024-01-16T01:56:21;-2.90;99.90
8662;DHT22;29684;47.722;9.388;2024-01-16T01:59:06;-2.70;99.90
8662;DHT22;29684;47.722;9.388;2024-01-16T02:01:51;-2.60;99.90
8662;DHT22;29684;47.722;9.388;2024-01-16T02:04:43;-2.70;99.90
8662;DHT22;29684;47.722;9.388;2024-01-16T02:07:28;-2.60;99.90
8662;DHT22;29684;47.722;9.388;2024-01-16T02:10:12;-2.60;99.90
8662;DHT22;29684;47.722;9.388;2024-01-16T02:12:56;-2.70;99.90
8662;DHT22;29684;47.722;9.388;2024-01-16T02:15:41;-2.80;99.90
8662;DHT22;29684;47.722;9.388;2024-01-16T02:18:25;-2.90;99.90
8662;DHT22;29684;47.722;9.388;2024-01-16T02:21:09;-2.80;99.90
8662;DHT22;29684;47.722;9.388;2024-01-16T02:23:54;-2.80;99.90
8662;DHT22;29684;47.722;9.388;2024-01-16T02:26:39;-2.70;99.90
8662;DHT22;29684;47.722;9.388;2024-01-16T02:29:23;-2.70;99.90
8662;DHT22;29684;47.722;9.388;2024-01-16T02:32:11;-2.70;99.90
8662;DHT22;29684;47.722;9.388;2024-01-16T02:34:56;-2.70;99.90
8662;DHT22;29684;47.722;9.388;2024-01-16T02:37:40;-2.80;99.90
8662;DHT22;29684;47.722;9.388;2024-01-16T02:40:24;-2.80;99.90
8662;DHT22;29684;47.722;9.388;2024-01-16T02:43:09;-2.80;99.90
8662;DHT22;29684;47.722;9.388;2024-01-16T02:45:53;-2.80;99.90
8662;DHT22;29684;47.722;9.388;2024-01-16T02:48:37;-2.80;99.90
8662;DHT22;29684;47.722;9.388;2024-01-16T02:51:22;-2.80;99.90
8662;DHT22;29684;47.722;9.388;2024-01-16T02:54:07;-2.80;99.90
8662;DHT22;29684;47.722;9.388;2024-01-16T02:56:52;-2.60;99.90
8662;DHT22;29684;47.722;9.388;2024-01-16T02:59:37;-2.60;99.90
8662;DHT22;29684;47.722;9.388;2024-01-16T03:02:21;-2.60;99.90
8662;DHT22;29684;47.722;9.388;2024-01-16T03:05:07;-2.50;99.90
8662;DHT22;29684;47.722;9.388;2024-01-16T03:07:51;-2.70;99.90
8662;DHT22;29684;47.722;9.388;2024-01-16T03:10:35;-2.70;99.90
8662;DHT22;29684;47.722;9.388;2024-01-16T03:13:20;-2.70;99.90
8662;DHT22;29684;47.722;9.388;2024-01-16T03:16:07;-2.60;99.90
8662;DHT22;29684;47.722;9.388;2024-01-16T03:18:51;-2.50;99.90
8662;DHT22;29684;47.722;9.388;2024-01-16T03:21:35;-2.40;99.90
8662;DHT22;29684;47.722;9.388;2024-01-16T03:24:19;-2.40;99.90
8662;DHT22;29684;47.722;9.388;2024-01-16T03:27:04;-2.40;99.90
8662;DHT22;29684;47.722;9.388;2024-01-16T03:29:48;-2.30;99.90
8662;DHT22;29684;47.722;9.388;2024-01-16T03:32:32;-2.30;99.90
8662;DHT22;29684;47.722;9.388;2024-01-16T03:35:16;-2.20;99.90
8662;DHT22;29684;47.722;9.388;2024-01-16T03:38:01;-2.10;99.90
8662;DHT22;29684;47.722;9.388;2024-01-16T03:40:45;-2.00;99.90
8662;DHT22;29684;47.722;9.388;2024-01-16T03:43:29;-2.00;99.90
8662;DHT22;29684;47.722;9.388;2024-01-16T03:46:13;-1.90;99.90
8662;DHT22;29684;47.722;9.388;2024-01-16T03:48:57;0.40;99.90
8662;DHT22;29684;47.722;9.388;2024-01-16T03:51:41;-1.90;99.90
8662;DHT22;29684;47.722;9.388;2024-01-16T03:54:30;-1.90;99.90
8662;DHT22;29684;47.722;9.388;2024-01-16T03:57:14;-2.00;99.90
8662;DHT22;29684;47.722;9.388;2024-01-16T03:59:58;-2.10;99.90
8662;DHT22;29684;47.722;9.388;2024-01-16T04:02:42;-2.20;99.90
8662;DHT22;29684;47.722;9.388;2024-01-16T04:05:26;-2.40;99.90
8662;DHT22;29684;47.722;9.388;2024-01-16T04:08:11;-2.50;99.90
8662;DHT22;29684;47.722;9.388;2024-01-16T04:10:56;-2.60;99.90
8662;DHT22;29684;47.722;9.388;2024-01-16T04:13:40;-2.70;99.90
8662;DHT22;29684;47.722;9.388;2024-01-16T04:16:24;-2.70;99.90
8662;DHT22;29684;47.722;9.388;2024-01-16T04:19:08;-2.90;99.90
8662;DHT22;29684;47.722;9.388;2024-01-16T04:21:52;-3.00;99.90
8662;DHT22;29684;47.722;9.388;2024-01-16T04:24:37;-3.10;99.90
8662;DHT22;29684;47.722;9.388;2024-01-16T04:27:21;-3.20;99.90
8662;DHT22;29684;47.722;9.388;2024-01-16T04:30:06;-3.40;99.90
8662;DHT22;29684;47.722;9.388;2024-01-16T04:32:51;-3.50;99.90
8662;DHT22;29684;47.722;9.388;2024-01-16T04:35:35;-3.50;99.90
8662;DHT22;29684;47.722;9.388;2024-01-16T04:38:19;-3.50;99.90
8662;DHT22;29684;47.722;9.388;2024-01-16T04:41:03;-3.20;99.90
8662;DHT22;29684;47.722;9.388;2024-01-16T04:43:48;-2.90;99.90
8662;DHT22;29684;47.722;9.388;2024-01-16T04:46:33;-2.70;99.90
8662;DHT22;29684;47.722;9.388;2024-01-16T04:49:17;-2.60;99.90
8662;DHT22;29684;47.722;9.388;2024-01-16T04:52:02;-2.70;99.90
8662;DHT22;29684;47.722;9.388;2024-01-16T04:54:47;-2.70;99.90
8662;DHT22;29684;47.722;9.388;2024-01-16T04:57:31;-2.60;99.90
8662;DHT22;29684;47.722;9.388;2024-01-16T05:00:15;-2.60;99.90
8662;DHT22;29684;47.722;9.388;2024-01-16T05:03:04;-2.60;99.90
8662;DHT22;29684;47.722;9.388;2024-01-16T05:05:49;-2.60;99.90
8662;DHT22;29684;47.722;9.388;2024-01-16T05:08:33;-2.60;99.90
8662;DHT22;29684;47.722;9.388;2024-01-16T05:11:18;-2.50;99.90
8662;DHT22;29684;47.722;9.388;2024-01-16T05:14:02;-2.70;99.90
8662;DHT22;29684;47.722;9.388;2024-01-16T05:16:46;-2.80;99.90
8662;DHT22;29684;47.722;9.388;2024-01-16T05:19:30;-3.00;99.90
8662;DHT22;29684;47.722;9.388;2024-01-16T05:22:14;-3.10;99.90
8662;DHT22;29684;47.722;9.388;2024-01-16T05:25:00;-2.90;99.90
8662;DHT22;29684;47.722;9.388;2024-01-16T05:27:44;-3.10;99.90
8662;DHT22;29684;47.722;9.388;2024-01-16T05:30:28;-3.20;99.90
8662;DHT22;29684;47.722;9.388;2024-01-16T05:33:12;-3.30;99.90
8662;DHT22;29684;47.722;9.388;2024-01-16T05:35:57;-3.00;99.90
8662;DHT22;29684;47.722;9.388;2024-01-16T05:38:41;-3.30;99.90
8662;DHT22;29684;47.722;9.388;2024-01-16T05:41:26;-3.20;99.90
8662;DHT22;29684;47.722;9.388;2024-01-16T05:44:10;-3.10;99.90
8662;DHT22;29684;47.722;9.388;2024-01-16T05:46:54;-3.10;99.90
8662;DHT22;29684;47.722;9.388;2024-01-16T05:49:39;-3.20;99.90
8662;DHT22;29684;47.722;9.388;2024-01-16T05:52:25;-3.30;99.90
8662;DHT22;29684;47.722;9.388;2024-01-16T05:55:09;-3.40;99.90
8662;DHT22;29684;47.722;9.388;2024-01-16T05:57:54;-3.50;99.90
8662;DHT22;29684;47.722;9.388;2024-01-16T06:00:39;-3.40;99.90
8662;DHT22;29684;47.722;9.388;2024-01-16T06:03:23;-3.60;99.90
8662;DHT22;29684;47.722;9.388;2024-01-16T06:06:07;-3.70;99.90
8662;DHT22;29684;47.722;9.388;2024-01-16T06:08:52;-3.50;99.90
8662;DHT22;29684;47.722;9.388;2024-01-16T06:11:36;-3.40;99.90
8662;DHT22;29684;47.722;9.388;2024-01-16T06:14:22;-3.50;99.90
8662;DHT22;29684;47.722;9.388;2024-01-16T06:17:06;-3.70;99.90
8662;DHT22;29684;47.722;9.388;2024-01-16T06:19:50;-3.80;99.90
8662;DHT22;29684;47.722;9.388;2024-01-16T06:22:34;-3.70;99.90
8662;DHT22;29684;47.722;9.388;2024-01-16T06:25:18;-3.40;99.90
8662;DHT22;29684;47.722;9.388;2024-01-16T06:28:02;-3.70;99.90
8662;DHT22;29684;47.722;9.388;2024-01-16T06:30:49;-3.80;99.90
8662;DHT22;29684;47.722;9.388;2024-01-16T06:33:33;-3.80;99.90
8662;DHT22;29684;47.722;9.388;2024-01-16T06:36:17;-3.60;99.90
8662;DHT22;29684;47.722;9.388;2024-01-16T06:39:01;-3.40;99.90
8662;DHT22;29684;47.722;9.388;2024-01-16T06:41:47;-3.50;99.90
8662;DHT22;29684;47.722;9.388;2024-01-16T06:44:31;-3.60;99.90
8662;DHT22;29684;47.722;9.388;2024-01-16T06:47:16;-3.80;99.90
8662;DHT22;29684;47.722;9.388;2024-01-16T06:50:00;-4.20;99.90
8662;DHT22;29684;47.722;9.388;2024-01-16T06:52:44;-4.60;99.90
8662;DHT22;29684;47.722;9.388;2024-01-16T06:55:28;-4.80;99.90
8662;DHT22;29684;47.722;9.388;2024-01-16T06:58:13;-4.70;99.90
8662;DHT22;29684;47.722;9.388;2024-01-16T07:00:56;-4.50;99.90
8662;DHT22;29684;47.722;9.388;2024-01-16T07:03:41;-4.20;99.90
8662;DHT22;29684;47.722;9.388;2024-01-16T07:06:25;-4.00;99.90
8662;DHT22;29684;47.722;9.388;2024-01-16T07:09:10;-5.50;99.90
8662;DHT22;29684;47.722;9.388;2024-01-16T07:11:57;-4.10;99.90
8662;DHT22;29684;47.722;9.388;2024-01-16T07:14:41;-4.40;99.90
8662;DHT22;29684;47.722;9.388;2024-01-16T07:17:25;-4.80;99.90
8662;DHT22;29684;47.722;9.388;2024-01-16T07:20:10;-5.10;99.90
8662;DHT22;29684;47.722;9.388;2024-01-16T07:22:54;-5.20;99.90
8662;DHT22;29684;47.722;9.388;2024-01-16T07:25:38;-5.20;99.90
8662;DHT22;29684;47.722;9.388;2024-01-16T07:28:24;-5.10;99.90
8662;DHT22;29684;47.722;9.388;2024-01-16T07:31:08;-4.80;99.90
8662;DHT22;29684;47.722;9.388;2024-01-16T07:33:53;-4.70;99.90
8662;DHT22;29684;47.722;9.388;2024-01-16T07:36:37;-4.60;99.90
8662;DHT22;29684;47.722;9.388;2024-01-16T07:39:21;-4.40;99.90
8662;DHT22;29684;47.722;9.388;2024-01-16T07:42:06;-4.30;99.90
8662;DHT22;29684;47.722;9.388;2024-01-16T07:44:52;-4.50;99.90
8662;DHT22;29684;47.722;9.388;2024-01-16T07:47:37;-4.60;99.90
8662;DHT22;29684;47.722;9.388;2024-01-16T07:50:21;-4.70;99.90
8662;DHT22;29684;47.722;9.388;2024-01-16T07:53:05;-4.90;99.90
8662;DHT22;29684;47.722;9.388;2024-01-16T07:55:50;-5.00;99.90
8662;DHT22;29684;47.722;9.388;2024-01-16T07:58:34;-5.00;99.90
8662;DHT22;29684;47.722;9.388;2024-01-16T08:01:19;-5.00;99.90
8662;DHT22;29684;47.722;9.388;2024-01-16T08:04:04;-5.00;99.90
8662;DHT22;29684;47.722;9.388;2024-01-16T08:06:48;-4.90;99.90
8662;DHT22;29684;47.722;9.388;2024-01-16T08:09:32;-4.80;99.90
8662;DHT22;29684;47.722;9.388;2024-01-16T08:12:16;-4.70;99.90
8662;DHT22;29684;47.722;9.388;2024-01-16T08:15:00;-4.70;99.90
8662;DHT22;29684;47.722;9.388;2024-01-16T08:17:44;-4.70;99.90
8662;DHT22;29684;47.722;9.388;2024-01-16T08:20:28;-4.60;99.90
8662;DHT22;29684;47.722;9.388;2024-01-16T08:23:12;-4.60;99.90
8662;DHT22;29684;47.722;9.388;2024-01-16T08:25:57;-4.40;99.90
8662;DHT22;29684;47.722;9.388;2024-01-16T08:28:41;-4.30;99.90
8662;DHT22;29684;47.722;9.388;2024-01-16T08:31:25;-6.50;99.90
8662;DHT22;29684;47.722;9.388;2024-01-16T08:34:09;-4.20;99.90
8662;DHT22;29684;47.722;9.388;2024-01-16T08:36:54;-4.10;99.90
8662;DHT22;29684;47.722;9.388;2024-01-16T08:39:40;-4.10;99.90
8662;DHT22;29684;47.722;9.388;2024-01-16T08:42:25;-4.00;99.90
8662;DHT22;29684;47.722;9.388;2024-01-16T08:45:09;-3.70;99.90
8662;DHT22;29684;47.722;9.388;2024-01-16T08:47:54;-3.00;99.90
8662;DHT22;29684;47.722;9.388;2024-01-16T08:50:38;-2.40;99.90
8662;DHT22;29684;47.722;9.388;2024-01-16T08:53:22;-1.80;99.90
8662;DHT22;29684;47.722;9.388;2024-01-16T08:56:07;-0.90;99.90
8662;DHT22;29684;47.722;9.388;2024-01-16T08:58:52;-0.20;99.90
8662;DHT22;29684;47.722;9.388;2024-01-16T09:01:36;0.20;99.90
8662;DHT22;29684;47.722;9.388;2024-01-16T09:04:21;0.80;99.90
8662;DHT22;29684;47.722;9.388;2024-01-16T09:07:05;1.30;99.90
8662;DHT22;29684;47.722;9.388;2024-01-16T09:09:49;1.50;99.90
8662;DHT22;29684;47.722;9.388;2024-01-16T09:12:33;1.80;99.90
8662;DHT22;29684;47.722;9.388;2024-01-16T09:15:17;2.20;99.90
8662;DHT22;29684;47.722;9.388;2024-01-16T09:18:01;1.80;99.90
8662;DHT22;29684;47.722;9.388;2024-01-16T09:20:45;2.00;99.90
8662;DHT22;29684;47.722;9.388;2024-01-16T09:23:30;2.50;99.90
8662;DHT22;29684;47.722;9.388;2024-01-16T09:26:14;3.20;99.90
8662;DHT22;29684;47.722;9.388;2024-01-16T09:28:58;3.20;99.90
8662;DHT22;29684;47.722;9.388;2024-01-16T09:31:42;2.60;99.90
8662;DHT22;29684;47.722;9.388;2024-01-16T09:34:28;2.20;99.90
8662;DHT22;29684;47.722;9.388;2024-01-16T09:37:13;2.80;99.90
8662;DHT22;29684;47.722;9.388;2024-01-16T09:39:58;3.30;99.90
8662;DHT22;29684;47.722;9.388;2024-01-16T09:42:43;3.80;99.90
8662;DHT22;29684;47.722;9.388;2024-01-16T09:45:29;3.80;99.90
8662;DHT22;29684;47.722;9.388;2024-01-16T09:48:14;3.90;99.90
8662;DHT22;29684;47.722;9.388;2024-01-16T09:51:02;4.00;99.90
8662;DHT22;29684;47.722;9.388;2024-01-16T09:53:47;4.40;99.90
8662;DHT22;29684;47.722;9.388;2024-01-16T09:56:31;4.10;99.90
8662;DHT22;29684;47.722;9.388;2024-01-16T09:59:17;4.10;99.90
8662;DHT22;29684;47.722;9.388;2024-01-16T10:02:05;4.20;99.90
8662;DHT22;29684;47.722;9.388;2024-01-16T10:04:51;4.20;99.90
8662;DHT22;29684;47.722;9.388;2024-01-16T10:07:39;3.60;99.90
8662;DHT22;29684;47.722;9.388;2024-01-16T10:10:24;3.30;99.90
8662;DHT22;29684;47.722;9.388;2024-01-16T10:13:12;4.10;99.90
8662;DHT22;29684;47.722;9.388;2024-01-16T10:16:00;4.20;99.90
8662;DHT22;29684;47.722;9.388;2024-01-16T10:18:45;4.40;99.90
8662;DHT22;29684;47.722;9.388;2024-01-16T10:21:29;4.90;99.90
8662;DHT22;29684;47.722;9.388;2024-01-16T10:24:16;5.20;99.90
8662;DHT22;29684;47.722;9.388;2024-01-16T10:27:01;4.80;99.90
8662;DHT22;29684;47.722;9.388;2024-01-16T10:29:57;4.80;99.90
8662;DHT22;29684;47.722;9.388;2024-01-16T10:32:42;5.30;99.90
8662;DHT22;29684;47.722;9.388;2024-01-16T10:35:26;6.30;99.90
8662;DHT22;29684;47.722;9.388;2024-01-16T10:38:20;7.10;99.90
8662;DHT22;29684;47.722;9.388;2024-01-16T10:41:16;6.80;99.90
8662;DHT22;29684;47.722;9.388;2024-01-16T10:44:09;6.40;99.90
8662;DHT22;29684;47.722;9.388;2024-01-16T10:47:10;6.60;99.90
8662;DHT22;29684;47.722;9.388;2024-01-16T10:49:55;5.40;99.90
8662;DHT22;29684;47.722;9.388;2024-01-16T10:52:48;4.80;99.90
8662;DHT22;29684;47.722;9.388;2024-01-16T10:55:51;5.50;99.90
8662;DHT22;29684;47.722;9.388;2024-01-16T10:58:36;5.60;99.90
8662;DHT22;29684;47.722;9.388;2024-01-16T11:01:23;5.50;99.90
8662;DHT22;29684;47.722;9.388;2024-01-16T11:04:08;5.40;99.90
8662;DHT22;29684;47.722;9.388;2024-01-16T11:06:54;5.40;99.90
8662;DHT22;29684;47.722;9.388;2024-01-16T11:09:39;5.60;99.90
8662;DHT22;29684;47.722;9.388;2024-01-16T11:12:24;5.60;99.90
8662;DHT22;29684;47.722;9.388;2024-01-16T11:15:11;5.60;99.90
8662;DHT22;29684;47.722;9.388;2024-01-16T11:17:57;5.00;99.90
8662;DHT22;29684;47.722;9.388;2024-01-16T11:20:43;5.00;99.90
8662;DHT22;29684;47.722;9.388;2024-01-16T11:23:28;4.80;99.90
8662;DHT22;29684;47.722;9.388;2024-01-16T11:32:37;4.50;99.90
8662;DHT22;29684;47.722;9.388;2024-01-16T11:35:35;4.70;99.90
8662;DHT22;29684;47.722;9.388;2024-01-16T11:38:24;4.70;99.90
8662;DHT22;29684;47.722;9.388;2024-01-16T11:41:17;4.90;99.90
8662;DHT22;29684;47.722;9.388;2024-01-16T11:44:45;5.60;99.90
8662;DHT22;29684;47.722;9.388;2024-01-16T11:47:34;6.50;99.90
8662;DHT22;29684;47.722;9.388;2024-01-16T11:50:27;5.90;99.90
8662;DHT22;29684;47.722;9.388;2024-01-16T11:56:48;4.60;99.90
8662;DHT22;29684;47.722;9.388;2024-01-16T11:59:59;4.20;99.90
8662;DHT22;29684;47.722;9.388;2024-01-16T12:05:28;3.20;99.90
8662;DHT22;29684;47.722;9.388;2024-01-16T12:08:21;3.20;99.90
8662;DHT22;29684;47.722;9.388;2024-01-16T12:11:07;3.10;99.90
8662;DHT22;29684;47.722;9.388;2024-01-16T12:14:01;3.20;99.90
8662;DHT22;29684;47.722;9.388;2024-01-16T12:16:46;3.50;99.90
8662;DHT22;29684;47.722;9.388;2024-01-16T12:19:30;3.80;99.90
8662;DHT22;29684;47.722;9.388;2024-01-16T12:22:14;4.20;99.90
8662;DHT22;29684;47.722;9.388;2024-01-16T12:24:59;4.10;99.90
8662;DHT22;29684;47.722;9.388;2024-01-16T12:27:45;3.60;99.90
8662;DHT22;29684;47.722;9.388;2024-01-16T12:30:34;3.30;99.90
8662;DHT22;29684;47.722;9.388;2024-01-16T12:33:22;3.30;99.90
8662;DHT22;29684;47.722;9.388;2024-01-16T12:36:07;3.10;99.90
8662;DHT22;29684;47.722;9.388;2024-01-16T12:38:54;2.90;99.90
8662;DHT22;29684;47.722;9.388;2024-01-16T12:41:44;2.60;99.90
8662;DHT22;29684;47.722;9.388;2024-01-16T12:44:30;2.70;99.90
8662;DHT22;29684;47.722;9.388;2024-01-16T12:47:17;2.60;99.90
8662;DHT22;29684;47.722;9.388;2024-01-16T12:50:03;2.70;99.90
8662;DHT22;29684;47.722;9.388;2024-01-16T12:52:49;2.80;99.90
8662;DHT22;29684;47.722;9.388;2024-01-16T12:55:37;3.90;99.90
8662;DHT22;29684;47.722;9.388;2024-01-16T12:58:22;5.00;99.90
8662;DHT22;29684;47.722;9.388;2024-01-16T13:01:25;6.50;99.90
8662;DHT22;29684;47.722;9.388;2024-01-16T13:04:10;7.00;99.90
8662;DHT22;29684;47.722;9.388;2024-01-16T13:07:03;6.00;99.90
8662;DHT22;29684;47.722;9.388;2024-01-16T13:09:49;5.80;99.90
8662;DHT22;29684;47.722;9.388;2024-01-16T13:12:33;5.90;99.90
8662;DHT22;29684;47.722;9.388;2024-01-16T13:15:17;6.50;99.90
8662;DHT22;29684;47.722;9.388;2024-01-16T13:18:02;7.00;99.90
8662;DHT22;29684;47.722;9.388;2024-01-16T13:20:46;6.80;99.90
8662;DHT22;29684;47.722;9.388;2024-01-16T13:23:30;7.20;99.90
8662;DHT22;29684;47.722;9.388;2024-01-16T13:26:14;5.80;99.90
8662;DHT22;29684;47.722;9.388;2024-01-16T13:28:58;5.50;99.90
8662;DHT22;29684;47.722;9.388;2024-01-16T13:31:42;5.60;99.90
8662;DHT22;29684;47.722;9.388;2024-01-16T13:34:27;5.60;99.90
8662;DHT22;29684;47.722;9.388;2024-01-16T13:37:19;6.30;99.90
8662;DHT22;29684;47.722;9.388;2024-01-16T13:40:06;6.90;99.90
8662;DHT22;29684;47.722;9.388;2024-01-16T13:43:00;6.30;99.90
8662;DHT22;29684;47.722;9.388;2024-01-16T13:45:44;6.60;99.90
8662;DHT22;29684;47.722;9.388;2024-01-16T13:48:29;6.10;99.90
8662;DHT22;29684;47.722;9.388;2024-01-16T13:51:14;6.20;99.90
8662;DHT22;29684;47.722;9.388;2024-01-16T13:53:59;6.90;99.90
8662;DHT22;29684;47.722;9.388;2024-01-16T13:56:43;8.10;99.90
8662;DHT22;29684;47.722;9.388;2024-01-16T13:59:28;8.40;99.90
8662;DHT22;29684;47.722;9.388;2024-01-16T14:02:12;7.90;99.90
8662;DHT22;29684;47.722;9.388;2024-01-16T14:04:56;6.40;99.90
8662;DHT22;29684;47.722;9.388;2024-01-16T14:07:41;5.40;99.90
8662;DHT22;29684;47.722;9.388;2024-01-16T14:10:26;5.20;99.90
8662;DHT22;29684;47.722;9.388;2024-01-16T14:13:10;4.40;99.90
8662;DHT22;29684;47.722;9.388;2024-01-16T14:15:54;4.00;99.90
8662;DHT22;29684;47.722;9.388;2024-01-16T14:18:38;3.30;99.90
8662;DHT22;29684;47.722;9.388;2024-01-16T14:21:22;2.70;99.90
8662;DHT22;29684;47.722;9.388;2024-01-16T14:24:06;2.50;99.90
8662;DHT22;29684;47.722;9.388;2024-01-16T14:26:51;2.50;99.90
8662;DHT22;29684;47.722;9.388;2024-01-16T14:29:37;2.50;99.90
8662;DHT22;29684;47.722;9.388;2024-01-16T14:32:22;2.50;99.90
8662;DHT22;29684;47.722;9.388;2024-01-16T14:35:06;2.50;99.90
8662;DHT22;29684;47.722;9.388;2024-01-16T14:37:51;2.20;99.90
8662;DHT22;29684;47.722;9.388;2024-01-16T14:40:35;2.00;99.90
8662;DHT22;29684;47.722;9.388;2024-01-16T14:43:20;2.00;99.90
8662;DHT22;29684;47.722;9.388;2024-01-16T14:46:04;1.90;99.90
8662;DHT22;29684;47.722;9.388;2024-01-16T14:48:48;1.70;99.90
8662;DHT22;29684;47.722;9.388;2024-01-16T14:51:32;1.70;99.90
8662;DHT22;29684;47.722;9.388;2024-01-16T14:54:17;1.60;99.90
8662;DHT22;29684;47.722;9.388;2024-01-16T14:57:01;1.50;99.90
8662;DHT22;29684;47.722;9.388;2024-01-16T14:59:45;1.50;99.90
8662;DHT22;29684;47.722;9.388;2024-01-16T15:02:29;0.70;99.90
8662;DHT22;29684;47.722;9.388;2024-01-16T15:05:14;1.40;99.90
8662;DHT22;29684;47.722;9.388;2024-01-16T15:07:58;1.40;99.90
8662;DHT22;29684;47.722;9.388;2024-01-16T15:10:42;1.30;99.90
8662;DHT22;29684;47.722;9.388;2024-01-16T15:13:27;1.00;99.90
8662;DHT22;29684;47.722;9.388;2024-01-16T15:16:11;1.20;99.90
8662;DHT22;29684;47.722;9.388;2024-01-16T15:18:56;1.10;99.90
8662;DHT22;29684;47.722;9.388;2024-01-16T15:21:40;1.10;99.90
8662;DHT22;29684;47.722;9.388;2024-01-16T15:24:24;1.10;99.90
8662;DHT22;29684;47.722;9.388;2024-01-16T15:27:12;1.10;99.90
8662;DHT22;29684;47.722;9.388;2024-01-16T15:29:56;1.00;99.90
8662;DHT22;29684;47.722;9.388;2024-01-16T15:32:42;1.00;99.90
8662;DHT22;29684;47.722;9.388;2024-01-16T15:35:26;0.80;99.90
8662;DHT22;29684;47.722;9.388;2024-01-16T15:38:10;0.80;99.90
8662;DHT22;29684;47.722;9.388;2024-01-16T15:40:54;0.70;99.90
8662;DHT22;29684;47.722;9.388;2024-01-16T15:43:38;0.80;99.90
8662;DHT22;29684;47.722;9.388;2024-01-16T15:46:23;0.70;99.90
8662;DHT22;29684;47.722;9.388;2024-01-16T15:49:07;0.60;99.90
8662;DHT22;29684;47.722;9.388;2024-01-16T15:51:52;0.50;99.90
8662;DHT22;29684;47.722;9.388;2024-01-16T15:54:37;0.40;99.90
8662;DHT22;29684;47.722;9.388;2024-01-16T15:57:21;0.30;99.90
8662;DHT22;29684;47.722;9.388;2024-01-16T16:00:06;-0.10;99.90
8662;DHT22;29684;47.722;9.388;2024-01-16T16:02:53;0.10;99.90
8662;DHT22;29684;47.722;9.388;2024-01-16T16:05:37;0.00;99.90
8662;DHT22;29684;47.722;9.388;2024-01-16T16:08:21;0.20;99.90
8662;DHT22;29684;47.722;9.388;2024-01-16T16:11:05;0.00;99.90
8662;DHT22;29684;47.722;9.388;2024-01-16T16:13:49;-0.10;99.90
8662;DHT22;29684;47.722;9.388;2024-01-16T16:16:35;-0.30;99.90
8662;DHT22;29684;47.722;9.388;2024-01-16T16:19:20;-0.40;99.90
8662;DHT22;29684;47.722;9.388;2024-01-16T16:22:04;1.90;99.90
8662;DHT22;29684;47.722;9.388;2024-01-16T16:24:51;-0.60;99.90
8662;DHT22;29684;47.722;9.388;2024-01-16T16:27:35;-0.70;99.90
8662;DHT22;29684;47.722;9.388;2024-01-16T16:30:20;-0.80;99.90
8662;DHT22;29684;47.722;9.388;2024-01-16T16:33:04;-0.80;99.90
8662;DHT22;29684;47.722;9.388;2024-01-16T16:35:48;-0.90;99.90
8662;DHT22;29684;47.722;9.388;2024-01-16T16:38:32;-1.00;99.90
8662;DHT22;29684;47.722;9.388;2024-01-16T16:41:16;-1.10;99.90
8662;DHT22;29684;47.722;9.388;2024-01-16T16:44:01;-1.10;99.90
8662;DHT22;29684;47.722;9.388;2024-01-16T16:46:46;-1.20;99.90
8662;DHT22;29684;47.722;9.388;2024-01-16T16:49:30;-1.30;99.90
8662;DHT22;29684;47.722;9.388;2024-01-16T16:52:14;-1.40;99.90
8662;DHT22;29684;47.722;9.388;2024-01-16T16:54:59;-1.40;99.90
8662;DHT22;29684;47.722;9.388;2024-01-16T16:57:43;-1.50;99.90
8662;DHT22;29684;47.722;9.388;2024-01-16T17:00:28;-1.50;99.90
8662;DHT22;29684;47.722;9.388;2024-01-16T17:03:12;-1.50;99.90
8662;DHT22;29684;47.722;9.388;2024-01-16T17:05:56;-1.50;99.90
8662;DHT22;29684;47.722;9.388;2024-01-16T17:08:42;-1.50;99.90
8662;DHT22;29684;47.722;9.388;2024-01-16T17:11:29;-1.60;99.90
8662;DHT22;29684;47.722;9.388;2024-01-16T17:14:13;-1.60;99.90
8662;DHT22;29684;47.722;9.388;2024-01-16T17:16:58;-1.70;99.90
8662;DHT22;29684;47.722;9.388;2024-01-16T17:19:44;-1.70;99.90
8662;DHT22;29684;47.722;9.388;2024-01-16T17:22:28;-1.80;99.90
8662;DHT22;29684;47.722;9.388;2024-01-16T17:25:12;-1.90;99.90
8662;DHT22;29684;47.722;9.388;2024-01-16T17:27:56;-1.90;99.90
8662;DHT22;29684;47.722;9.388;2024-01-16T17:30:41;-2.00;99.90
8662;DHT22;29684;47.722;9.388;2024-01-16T17:33:25;-2.00;99.90
8662;DHT22;29684;47.722;9.388;2024-01-16T17:36:10;-2.10;99.90
8662;DHT22;29684;47.722;9.388;2024-01-16T17:38:55;-2.10;99.90
8662;DHT22;29684;47.722;9.388;2024-01-16T17:41:43;-2.10;99.90
8662;DHT22;29684;47.722;9.388;2024-01-16T17:44:29;-2.10;99.90
8662;DHT22;29684;47.722;9.388;2024-01-16T17:47:15;-2.00;99.90
8662;DHT22;29684;47.722;9.388;2024-01-16T17:50:00;-2.10;99.90
8662;DHT22;29684;47.722;9.388;2024-01-16T17:52:45;-2.10;99.90
8662;DHT22;29684;47.722;9.388;2024-01-16T17:55:29;-2.10;99.90
8662;DHT22;29684;47.722;9.388;2024-01-16T17:58:17;-2.10;99.90
8662;DHT22;29684;47.722;9.388;2024-01-16T18:01:05;-2.10;99.90